sensor_id;sensor_type;location;lat;lon;timestamp;pressure;altitude;pressure_sealevel;temperature;humidity
33163;BME280;29282;45.656;11.302;2022-12-18T00:01:47;99417.88;;;18.85;48.38
33163;BME280;29282;45.656;11.302;2022-12-18T00:04:23;99418.69;;;18.86;48.30
33163;BME280;29282;45.656;11.302;2022-12-18T00:06:49;99418.69;;;18.86;48.19
33163;BME280;29282;45.656;11.302;2022-12-18T00:09:15;99423.34;;;18.85;48.22
33163;BME280;29282;45.656;11.302;2022-12-18T00:11:41;99418.16;;;18.84;48.12
33163;BME280;29282;45.656;11.302;2022-12-18T00:14:07;99422.56;;;18.85;48.10
33163;BME280;29282;45.656;11.302;2022-12-18T00:16:33;99424.50;;;18.84;48.24
33163;BME280;29282;45.656;11.302;2022-12-18T00:19:00;99423.97;;;18.82;48.18
33163;BME280;29282;45.656;11.302;2022-12-18T00:21:27;99416.88;;;18.81;48.17
33163;BME280;29282;45.656;11.302;2022-12-18T00:23:53;99418.78;;;18.81;48.15
33163;BME280;29282;45.656;11.302;2022-12-18T00:26:24;99422.66;;;18.80;48.11
33163;BME280;29282;45.656;11.302;2022-12-18T00:28:50;99427.84;;;18.81;48.17
33163;BME280;29282;45.656;11.302;2022-12-18T00:31:22;99427.84;;;18.81;48.07
33163;BME280;29282;45.656;11.302;2022-12-18T00:33:48;99437.19;;;18.80;48.23
33163;BME280;29282;45.656;11.302;2022-12-18T00:36:16;99439.44;;;18.78;48.07
33163;BME280;29282;45.656;11.302;2022-12-18T00:38:43;99450.09;;;18.80;48.01
33163;BME280;29282;45.656;11.302;2022-12-18T00:41:10;99448.97;;;18.81;48.04
33163;BME280;29282;45.656;11.302;2022-12-18T00:43:36;99446.88;;;18.77;47.98
33163;BME280;29282;45.656;11.302;2022-12-18T00:46:02;99446.56;;;18.79;47.94
33163;BME280;29282;45.656;11.302;2022-12-18T00:48:28;99452.84;;;18.80;48.08
33163;BME280;29282;45.656;11.302;2022-12-18T00:50:53;99450.44;;;18.78;47.89
33163;BME280;29282;45.656;11.302;2022-12-18T00:53:19;99452.38;;;18.77;47.90
33163;BME280;29282;45.656;11.302;2022-12-18T00:55:45;99457.88;;;18.77;47.80
33163;BME280;29282;45.656;11.302;2022-12-18T00:58:12;99455.94;;;18.78;47.92
33163;BME280;29282;45.656;11.302;2022-12-18T01:00:37;99458.97;;;18.76;47.78
33163;BME280;29282;45.656;11.302;2022-12-18T01:03:04;99468.31;;;18.75;47.91
33163;BME280;29282;45.656;11.302;2022-12-18T01:05:30;99477.38;;;18.76;47.96
33163;BME280;29282;45.656;11.302;2022-12-18T01:07:56;99474.94;;;18.74;48.00
33163;BME280;29282;45.656;11.302;2022-12-18T01:10:22;99478.50;;;18.75;48.01
33163;BME280;29282;45.656;11.302;2022-12-18T01:12:49;99482.66;;;18.72;47.99
33163;BME280;29282;45.656;11.302;2022-12-18T01:15:15;99481.25;;;18.75;47.82
33163;BME280;29282;45.656;11.302;2022-12-18T01:17:41;99482.34;;;18.74;47.81
33163;BME280;29282;45.656;11.302;2022-12-18T01:20:08;99493.31;;;18.74;47.74
33163;BME280;29282;45.656;11.302;2022-12-18T01:22:35;99494.47;;;18.73;47.80
33163;BME280;29282;45.656;11.302;2022-12-18T01:25:00;99497.19;;;18.73;47.99
33163;BME280;29282;45.656;11.302;2022-12-18T01:27:26;99500.25;;;18.71;47.84
33163;BME280;29282;45.656;11.302;2022-12-18T01:29:52;99502.97;;;18.71;47.73
33163;BME280;29282;45.656;11.302;2022-12-18T01:32:17;99502.19;;;18.71;47.88
33163;BME280;29282;45.656;11.302;2022-12-18T01:34:43;99504.91;;;18.71;47.74
33163;BME280;29282;45.656;11.302;2022-12-18T01:37:08;99510.41;;;18.71;47.74
33163;BME280;29282;45.656;11.302;2022-12-18T01:39:34;99517.81;;;18.70;47.91
33163;BME280;29282;45.656;11.302;2022-12-18T01:42:02;99518.94;;;18.69;47.79
33163;BME280;29282;45.656;11.302;2022-12-18T01:47:22;99518.94;;;18.69;47.77
33163;BME280;29282;45.656;11.302;2022-12-18T01:49:48;99529.09;;;18.69;47.75
33163;BME280;29282;45.656;11.302;2022-12-18T01:52:14;99527.19;;;18.69;47.71
33163;BME280;29282;45.656;11.302;2022-12-18T01:54:40;99539.28;;;18.68;47.62
33163;BME280;29282;45.656;11.302;2022-12-18T01:57:06;99528.31;;;18.68;47.62
33163;BME280;29282;45.656;11.302;2022-12-18T01:59:33;99533.78;;;18.68;47.68
33163;BME280;29282;45.656;11.302;2022-12-18T02:01:59;99536.53;;;18.68;47.69
33163;BME280;29282;45.656;11.302;2022-12-18T02:04:27;99536.53;;;18.68;47.64
33163;BME280;29282;45.656;11.302;2022-12-18T02:09:48;99548.31;;;18.69;47.29
33163;BME280;29282;45.656;11.302;2022-12-18T02:15:36;99554.09;;;18.67;47.54
33163;BME280;29282;45.656;11.302;2022-12-18T02:18:15;99551.34;;;18.67;47.40
33163;BME280;29282;45.656;11.302;2022-12-18T02:20:47;99543.97;;;18.68;47.32
33163;BME280;29282;45.656;11.302;2022-12-18T02:28:44;99547.31;;;18.65;47.50
33163;BME280;29282;45.656;11.302;2022-12-18T02:31:14;99544.25;;;18.66;47.41
33163;BME280;29282;45.656;11.302;2022-12-18T02:33:43;99550.88;;;18.65;47.45
33163;BME280;29282;45.656;11.302;2022-12-18T02:36:12;99545.38;;;18.65;47.42
33163;BME280;29282;45.656;11.302;2022-12-18T02:38:40;99561.03;;;18.65;47.45
33163;BME280;29282;45.656;11.302;2022-12-18T02:41:07;99564.88;;;18.64;47.46
33163;BME280;29282;45.656;11.302;2022-12-18T02:43:32;99571.22;;;18.64;47.32
33163;BME280;29282;45.656;11.302;2022-12-18T02:46:00;99566.81;;;18.63;47.35
33163;BME280;29282;45.656;11.302;2022-12-18T02:48:29;99571.22;;;18.64;47.39
33163;BME280;29282;45.656;11.302;2022-12-18T02:51:10;99571.50;;;18.63;47.39
33163;BME280;29282;45.656;11.302;2022-12-18T02:54:01;99561.34;;;18.63;47.40
33163;BME280;29282;45.656;11.302;2022-12-18T02:56:51;99567.94;;;18.62;47.34
33163;BME280;29282;45.656;11.302;2022-12-18T02:59:30;99566.34;;;18.61;47.40
33163;BME280;29282;45.656;11.302;2022-12-18T03:02:03;99560.84;;;18.61;47.53
33163;BME280;29282;45.656;11.302;2022-12-18T03:04:53;99560.84;;;18.61;47.38
33163;BME280;29282;45.656;11.302;2022-12-18T03:10:16;99570.19;;;18.60;47.22
33163;BME280;29282;45.656;11.302;2022-12-18T03:12:51;99572.09;;;18.60;47.34
33163;BME280;29282;45.656;11.302;2022-12-18T03:15:23;99570.19;;;18.60;47.19
33163;BME280;29282;45.656;11.302;2022-12-18T03:18:02;99572.63;;;18.62;47.30
33163;BME280;29282;45.656;11.302;2022-12-18T03:20:31;99571.81;;;18.61;47.29
33163;BME280;29282;45.656;11.302;2022-12-18T03:23:13;99572.63;;;18.62;47.21
33163;BME280;29282;45.656;11.302;2022-12-18T03:25:44;99578.13;;;18.62;47.07
33163;BME280;29282;45.656;11.302;2022-12-18T03:28:14;99575.38;;;18.62;47.16
33163;BME280;29282;45.656;11.302;2022-12-18T03:30:43;99578.94;;;18.62;47.36
33163;BME280;29282;45.656;11.302;2022-12-18T03:33:32;99587.97;;;18.63;47.27
33163;BME280;29282;45.656;11.302;2022-12-18T03:36:00;99583.28;;;18.63;47.08
33163;BME280;29282;45.656;11.302;2022-12-18T03:38:26;99581.34;;;18.64;46.96
33163;BME280;29282;45.656;11.302;2022-12-18T03:46:32;99584.41;;;18.62;47.04
33163;BME280;29282;45.656;11.302;2022-12-18T03:49:11;99584.72;;;18.61;47.00
33163;BME280;29282;45.656;11.302;2022-12-18T03:51:49;99583.28;;;18.63;46.76
33163;BME280;29282;45.656;11.302;2022-12-18T03:54:18;99588.78;;;18.63;46.82
33163;BME280;29282;45.656;11.302;2022-12-18T03:56:48;99583.00;;;18.65;46.90
33163;BME280;29282;45.656;11.302;2022-12-18T03:59:16;99597.81;;;18.64;47.01
33163;BME280;29282;45.656;11.302;2022-12-18T04:01:49;99597.00;;;18.63;46.97
33163;BME280;29282;45.656;11.302;2022-12-18T04:04:17;99596.53;;;18.61;46.87
33163;BME280;29282;45.656;11.302;2022-12-18T04:06:45;99605.25;;;18.63;46.85
33163;BME280;29282;45.656;11.302;2022-12-18T04:09:13;99604.44;;;18.63;46.84
33163;BME280;29282;45.656;11.302;2022-12-18T04:11:40;99613.19;;;18.65;46.80
33163;BME280;29282;45.656;11.302;2022-12-18T04:14:06;99619.78;;;18.64;46.85
33163;BME280;29282;45.656;11.302;2022-12-18T04:16:31;99619.28;;;18.62;46.74
33163;BME280;29282;45.656;11.302;2022-12-18T04:18:57;99622.84;;;18.62;46.84
33163;BME280;29282;45.656;11.302;2022-12-18T04:21:22;99629.47;;;18.61;46.82
33163;BME280;29282;45.656;11.302;2022-12-18T04:23:48;99626.72;;;18.61;46.81
33163;BME280;29282;45.656;11.302;2022-12-18T04:26:14;99629.75;;;18.60;46.79
33163;BME280;29282;45.656;11.302;2022-12-18T04:28:39;99634.44;;;18.59;46.76
33163;BME280;29282;45.656;11.302;2022-12-18T04:31:05;99637.97;;;18.60;46.77
33163;BME280;29282;45.656;11.302;2022-12-18T04:33:30;99637.97;;;18.60;46.79
33163;BME280;29282;45.656;11.302;2022-12-18T04:35:56;99645.09;;;18.61;46.82
33163;BME280;29282;45.656;11.302;2022-12-18T04:38:21;99644.28;;;18.60;46.86
33163;BME280;29282;45.656;11.302;2022-12-18T04:40:47;99647.03;;;18.60;46.73
33163;BME280;29282;45.656;11.302;2022-12-18T04:43:12;99650.91;;;18.59;46.66
33163;BME280;29282;45.656;11.302;2022-12-18T04:45:38;99652.53;;;18.60;46.77
33163;BME280;29282;45.656;11.302;2022-12-18T04:48:04;99653.66;;;18.59;46.73
33163;BME280;29282;45.656;11.302;2022-12-18T04:50:30;99662.69;;;18.60;46.61
33163;BME280;29282;45.656;11.302;2022-12-18T04:52:55;99665.44;;;18.60;46.54
33163;BME280;29282;45.656;11.302;2022-12-18T04:55:24;99669.78;;;18.61;46.65
33163;BME280;29282;45.656;11.302;2022-12-18T04:57:50;99669.00;;;18.60;46.67
33163;BME280;29282;45.656;11.302;2022-12-18T05:00:15;99688.19;;;18.60;46.63
33163;BME280;29282;45.656;11.302;2022-12-18T05:02:41;99691.75;;;18.61;46.50
33163;BME280;29282;45.656;11.302;2022-12-18T05:05:07;99691.75;;;18.61;46.63
33163;BME280;29282;45.656;11.302;2022-12-18T05:07:32;99686.59;;;18.59;46.40
33163;BME280;29282;45.656;11.302;2022-12-18T05:09:58;99688.19;;;18.60;46.54
33163;BME280;29282;45.656;11.302;2022-12-18T05:12:24;99690.13;;;18.60;46.47
33163;BME280;29282;45.656;11.302;2022-12-18T05:14:49;99691.25;;;18.59;46.52
33163;BME280;29282;45.656;11.302;2022-12-18T05:17:15;99701.94;;;18.60;46.46
33163;BME280;29282;45.656;11.302;2022-12-18T05:19:40;99696.44;;;18.60;46.44
33163;BME280;29282;45.656;11.302;2022-12-18T05:22:07;99701.94;;;18.60;46.52
33163;BME280;29282;45.656;11.302;2022-12-18T05:24:33;99702.25;;;18.59;46.48
33163;BME280;29282;45.656;11.302;2022-12-18T05:26:59;99703.88;;;18.60;46.56
33163;BME280;29282;45.656;11.302;2022-12-18T05:29:24;99707.72;;;18.59;46.38
33163;BME280;29282;45.656;11.302;2022-12-18T05:31:50;99709.66;;;18.58;46.48
33163;BME280;29282;45.656;11.302;2022-12-18T05:34:16;99708.84;;;18.58;46.41
33163;BME280;29282;45.656;11.302;2022-12-18T05:36:41;99716.25;;;18.57;46.54
33163;BME280;29282;45.656;11.302;2022-12-18T05:39:07;99727.75;;;18.59;46.45
33163;BME280;29282;45.656;11.302;2022-12-18T05:41:33;99728.88;;;18.58;46.50
33163;BME280;29282;45.656;11.302;2022-12-18T05:43:58;99736.00;;;18.59;46.59
33163;BME280;29282;45.656;11.302;2022-12-18T05:46:24;99735.47;;;18.57;46.39
33163;BME280;29282;45.656;11.302;2022-12-18T05:48:50;99732.72;;;18.57;46.26
33163;BME280;29282;45.656;11.302;2022-12-18T05:51:18;99737.13;;;18.58;46.36
33163;BME280;29282;45.656;11.302;2022-12-18T05:53:45;99728.88;;;18.58;46.38
33163;BME280;29282;45.656;11.302;2022-12-18T05:56:18;99732.44;;;18.59;46.34
33163;BME280;29282;45.656;11.302;2022-12-18T05:58:45;99737.13;;;18.58;46.29
33163;BME280;29282;45.656;11.302;2022-12-18T06:01:15;99740.66;;;18.59;46.22
33163;BME280;29282;45.656;11.302;2022-12-18T06:03:41;99743.41;;;18.59;46.25
33163;BME280;29282;45.656;11.302;2022-12-18T06:06:24;99754.41;;;18.59;46.29
33163;BME280;29282;45.656;11.302;2022-12-18T06:08:52;99757.94;;;18.59;46.13
33163;BME280;29282;45.656;11.302;2022-12-18T06:11:25;99758.25;;;18.58;46.15
33163;BME280;29282;45.656;11.302;2022-12-18T06:13:53;99768.41;;;18.57;46.17
33163;BME280;29282;45.656;11.302;2022-12-18T06:16:18;99771.16;;;18.57;46.27
33163;BME280;29282;45.656;11.302;2022-12-18T06:18:44;99776.63;;;18.57;46.16
33163;BME280;29282;45.656;11.302;2022-12-18T06:21:09;99786.53;;;18.58;46.35
33163;BME280;29282;45.656;11.302;2022-12-18T06:23:35;99774.72;;;18.58;46.23
33163;BME280;29282;45.656;11.302;2022-12-18T06:26:08;99784.88;;;18.57;46.17
33163;BME280;29282;45.656;11.302;2022-12-18T06:28:34;99787.63;;;18.57;46.12
33163;BME280;29282;45.656;11.302;2022-12-18T06:31:00;99793.63;;;18.59;46.14
33163;BME280;29282;45.656;11.302;2022-12-18T06:33:27;99790.38;;;18.57;46.05
33163;BME280;29282;45.656;11.302;2022-12-18T06:36:03;99793.09;;;18.57;46.00
33163;BME280;29282;45.656;11.302;2022-12-18T06:38:31;99783.25;;;18.56;46.19
33163;BME280;29282;45.656;11.302;2022-12-18T06:40:57;99800.53;;;18.57;46.05
33163;BME280;29282;45.656;11.302;2022-12-18T06:43:22;99803.28;;;18.57;46.13
33163;BME280;29282;45.656;11.302;2022-12-18T06:45:48;99796.69;;;18.58;46.11
33163;BME280;29282;45.656;11.302;2022-12-18T06:48:18;99799.94;;;18.60;45.92
33163;BME280;29282;45.656;11.302;2022-12-18T06:50:45;99795.84;;;18.57;46.03
33163;BME280;29282;45.656;11.302;2022-12-18T06:53:10;99804.09;;;18.57;46.10
33163;BME280;29282;45.656;11.302;2022-12-18T06:55:36;99803.00;;;18.58;45.92
33163;BME280;29282;45.656;11.302;2022-12-18T06:58:02;99800.25;;;18.58;46.27
33163;BME280;29282;45.656;11.302;2022-12-18T07:00:28;99795.84;;;18.57;45.96
33163;BME280;29282;45.656;11.302;2022-12-18T07:02:53;99799.44;;;18.58;46.03
33163;BME280;29282;45.656;11.302;2022-12-18T07:05:19;99808.47;;;18.58;45.81
33163;BME280;29282;45.656;11.302;2022-12-18T07:07:44;99800.25;;;18.58;45.81
33163;BME280;29282;45.656;11.302;2022-12-18T07:10:10;99812.03;;;18.59;45.99
33163;BME280;29282;45.656;11.302;2022-12-18T07:12:35;99808.47;;;18.58;45.99
33163;BME280;29282;45.656;11.302;2022-12-18T07:15:01;99809.56;;;18.57;45.99
33163;BME280;29282;45.656;11.302;2022-12-18T07:17:27;99818.94;;;18.56;46.02
33163;BME280;29282;45.656;11.302;2022-12-18T07:19:52;99822.00;;;18.54;46.07
33163;BME280;29282;45.656;11.302;2022-12-18T07:22:18;99822.88;;;18.50;45.15
33163;BME280;29282;45.656;11.302;2022-12-18T07:24:43;99828.81;;;18.19;43.78
33163;BME280;29282;45.656;11.302;2022-12-18T07:27:09;99824.19;;;17.96;43.40
33163;BME280;29282;45.656;11.302;2022-12-18T07:29:34;99831.78;;;17.80;40.86
33163;BME280;29282;45.656;11.302;2022-12-18T07:32:00;99836.59;;;17.64;40.84
33163;BME280;29282;45.656;11.302;2022-12-18T07:34:25;99836.13;;;17.57;40.09
33163;BME280;29282;45.656;11.302;2022-12-18T07:36:51;99839.91;;;17.61;39.11
33163;BME280;29282;45.656;11.302;2022-12-18T07:39:16;99842.78;;;17.75;39.46
33163;BME280;29282;45.656;11.302;2022-12-18T07:41:42;99849.97;;;17.95;38.67
33163;BME280;29282;45.656;11.302;2022-12-18T07:44:11;99846.97;;;18.15;39.07
33163;BME280;29282;45.656;11.302;2022-12-18T07:46:37;99848.75;;;18.44;38.59
33163;BME280;29282;45.656;11.302;2022-12-18T07:49:03;99846.31;;;18.61;38.32
33163;BME280;29282;45.656;11.302;2022-12-18T07:51:29;99852.13;;;18.78;38.44
33163;BME280;29282;45.656;11.302;2022-12-18T07:53:54;99853.34;;;18.86;38.30
33163;BME280;29282;45.656;11.302;2022-12-18T07:56:20;99853.56;;;18.90;38.61
33163;BME280;29282;45.656;11.302;2022-12-18T07:58:46;99861.75;;;18.95;38.61
33163;BME280;29282;45.656;11.302;2022-12-18T08:01:12;99857.06;;;18.95;38.87
33163;BME280;29282;45.656;11.302;2022-12-18T08:03:40;99864.00;;;19.07;38.84
33163;BME280;29282;45.656;11.302;2022-12-18T08:06:08;99873.88;;;19.08;39.16
33163;BME280;29282;45.656;11.302;2022-12-18T08:08:34;99876.84;;;19.11;39.33
33163;BME280;29282;45.656;11.302;2022-12-18T08:11:00;99882.84;;;19.13;39.31
33163;BME280;29282;45.656;11.302;2022-12-18T08:13:26;99893.75;;;19.18;39.30
33163;BME280;29282;45.656;11.302;2022-12-18T08:16:01;99882.34;;;19.11;39.49
33163;BME280;29282;45.656;11.302;2022-12-18T08:18:27;99884.03;;;19.07;40.01
33163;BME280;29282;45.656;11.302;2022-12-18T08:20:52;99885.38;;;19.10;39.89
33163;BME280;29282;45.656;11.302;2022-12-18T08:23:19;99888.34;;;19.13;40.08
33163;BME280;29282;45.656;11.302;2022-12-18T08:25:44;99890.41;;;19.21;39.98
33163;BME280;29282;45.656;11.302;2022-12-18T08:28:10;99899.50;;;19.36;39.66
33163;BME280;29282;45.656;11.302;2022-12-18T08:30:36;99896.56;;;19.46;39.48
33163;BME280;29282;45.656;11.302;2022-12-18T08:33:02;99904.22;;;19.49;39.66
33163;BME280;29282;45.656;11.302;2022-12-18T08:35:27;99907.97;;;19.53;39.77
33163;BME280;29282;45.656;11.302;2022-12-18T08:37:53;99907.38;;;19.56;39.85
33163;BME280;29282;45.656;11.302;2022-12-18T08:40:18;99913.69;;;19.57;39.93
33163;BME280;29282;45.656;11.302;2022-12-18T08:42:44;99911.78;;;19.57;39.89
33163;BME280;29282;45.656;11.302;2022-12-18T08:45:28;99917.06;;;19.54;40.07
33163;BME280;29282;45.656;11.302;2022-12-18T08:47:54;99919.19;;;19.57;40.37
33163;BME280;29282;45.656;11.302;2022-12-18T08:50:19;99915.03;;;19.59;40.20
33163;BME280;29282;45.656;11.302;2022-12-18T08:52:45;99926.22;;;19.63;40.22
33163;BME280;29282;45.656;11.302;2022-12-18T08:55:10;99935.59;;;19.62;40.21
33163;BME280;29282;45.656;11.302;2022-12-18T08:57:36;99928.94;;;19.68;40.18
33163;BME280;29282;45.656;11.302;2022-12-18T09:00:03;99920.97;;;19.66;40.48
33163;BME280;29282;45.656;11.302;2022-12-18T09:02:29;99927.19;;;19.72;40.22
33163;BME280;29282;45.656;11.302;2022-12-18T09:04:54;99923.63;;;19.71;40.33
33163;BME280;29282;45.656;11.302;2022-12-18T09:07:20;99934.03;;;19.75;40.20
33163;BME280;29282;45.656;11.302;2022-12-18T09:09:45;99927.41;;;19.76;40.34
33163;BME280;29282;45.656;11.302;2022-12-18T09:12:11;99938.59;;;19.79;40.46
33163;BME280;29282;45.656;11.302;2022-12-18T09:14:36;99941.69;;;19.78;40.43
33163;BME280;29282;45.656;11.302;2022-12-18T09:17:02;99943.31;;;19.79;40.46
33163;BME280;29282;45.656;11.302;2022-12-18T09:19:27;99943.63;;;19.77;40.47
33163;BME280;29282;45.656;11.302;2022-12-18T09:21:53;99950.75;;;19.78;40.59
33163;BME280;29282;45.656;11.302;2022-12-18T09:24:18;99949.94;;;19.78;40.70
33163;BME280;29282;45.656;11.302;2022-12-18T09:26:44;99951.56;;;19.79;40.69
33163;BME280;29282;45.656;11.302;2022-12-18T09:29:09;99949.13;;;19.77;40.76
33163;BME280;29282;45.656;11.302;2022-12-18T09:31:36;99945.53;;;19.77;40.80
33163;BME280;29282;45.656;11.302;2022-12-18T09:34:01;99948.28;;;19.77;40.88
33163;BME280;29282;45.656;11.302;2022-12-18T09:36:27;99953.78;;;19.77;40.86
33163;BME280;29282;45.656;11.302;2022-12-18T09:38:53;99947.19;;;19.78;41.06
33163;BME280;29282;45.656;11.302;2022-12-18T09:41:36;99950.94;;;19.82;40.75
33163;BME280;29282;45.656;11.302;2022-12-18T09:47:27;99932.72;;;19.86;40.70
33163;BME280;29282;45.656;11.302;2022-12-18T09:49:40;99938.72;;;19.88;40.88
33163;BME280;29282;45.656;11.302;2022-12-18T09:57:47;99942.41;;;19.97;40.83
33163;BME280;29282;45.656;11.302;2022-12-18T10:00:18;99938.00;;;19.96;41.06
33163;BME280;29282;45.656;11.302;2022-12-18T10:02:45;99936.91;;;19.97;41.08
33163;BME280;29282;45.656;11.302;2022-12-18T10:05:17;99942.41;;;19.97;41.25
33163;BME280;29282;45.656;11.302;2022-12-18T10:10:51;99929.75;;;19.96;41.47
33163;BME280;29282;45.656;11.302;2022-12-18T10:18:36;99912.34;;;20.01;41.65
33163;BME280;29282;45.656;11.302;2022-12-18T10:21:18;99909.28;;;20.02;41.67
33163;BME280;29282;45.656;11.302;2022-12-18T10:27:23;99910.91;;;20.03;41.88
33163;BME280;29282;45.656;11.302;2022-12-18T10:29:50;99910.63;;;20.05;41.79
33163;BME280;29282;45.656;11.302;2022-12-18T10:32:22;99914.19;;;20.05;41.85
33163;BME280;29282;45.656;11.302;2022-12-18T10:34:49;99913.88;;;20.07;42.03
33163;BME280;29282;45.656;11.302;2022-12-18T10:37:20;99921.00;;;20.08;42.00
33163;BME280;29282;45.656;11.302;2022-12-18T10:40:04;99916.31;;;20.08;41.95
33163;BME280;29282;45.656;11.302;2022-12-18T10:42:31;99920.19;;;20.07;42.16
33163;BME280;29282;45.656;11.302;2022-12-18T10:45:13;99918.06;;;20.04;42.23
33163;BME280;29282;45.656;11.302;2022-12-18T10:47:44;99917.34;;;20.12;42.03
33163;BME280;29282;45.656;11.302;2022-12-18T10:50:31;99905.84;;;20.10;42.17
33163;BME280;29282;45.656;11.302;2022-12-18T10:52:59;99903.09;;;20.10;42.35
33163;BME280;29282;45.656;11.302;2022-12-18T10:55:39;99905.84;;;20.10;42.59
33163;BME280;29282;45.656;11.302;2022-12-18T10:58:28;99912.44;;;20.09;42.85
33163;BME280;29282;45.656;11.302;2022-12-18T11:01:17;99910.13;;;20.16;42.46
33163;BME280;29282;45.656;11.302;2022-12-18T11:04:01;99908.06;;;20.22;42.53
33163;BME280;29282;45.656;11.302;2022-12-18T11:06:28;99903.88;;;20.25;42.44
33163;BME280;29282;45.656;11.302;2022-12-18T11:09:05;99905.22;;;20.27;43.02
33163;BME280;29282;45.656;11.302;2022-12-18T11:11:32;99905.41;;;20.31;42.90
33163;BME280;29282;45.656;11.302;2022-12-18T11:14:02;99907.63;;;20.29;43.20
33163;BME280;29282;45.656;11.302;2022-12-18T11:16:30;99911.00;;;20.26;43.13
33163;BME280;29282;45.656;11.302;2022-12-18T11:19:34;99899.50;;;20.24;43.04
33163;BME280;29282;45.656;11.302;2022-12-18T11:22:03;99900.81;;;20.26;43.39
33163;BME280;29282;45.656;11.302;2022-12-18T11:24:49;99901.03;;;20.30;43.36
33163;BME280;29282;45.656;11.302;2022-12-18T11:27:18;99900.00;;;20.26;43.54
33163;BME280;29282;45.656;11.302;2022-12-18T11:29:44;99898.69;;;20.23;43.60
33163;BME280;29282;45.656;11.302;2022-12-18T11:32:22;99897.38;;;20.21;43.52
33163;BME280;29282;45.656;11.302;2022-12-18T11:35:03;99901.53;;;20.18;43.57
33163;BME280;29282;45.656;11.302;2022-12-18T11:37:29;99893.28;;;20.18;43.62
33163;BME280;29282;45.656;11.302;2022-12-18T11:40:00;99890.22;;;20.19;43.58
33163;BME280;29282;45.656;11.302;2022-12-18T11:42:39;99890.84;;;20.16;43.78
33163;BME280;29282;45.656;11.302;2022-12-18T11:47:45;99881.75;;;20.16;43.65
33163;BME280;29282;45.656;11.302;2022-12-18T11:50:18;99874.44;;;20.11;43.53
33163;BME280;29282;45.656;11.302;2022-12-18T11:52:44;99878.31;;;20.10;43.89
33163;BME280;29282;45.656;11.302;2022-12-18T11:55:12;99875.56;;;20.10;43.68
33163;BME280;29282;45.656;11.302;2022-12-18T11:57:52;99878.00;;;20.12;43.67
33163;BME280;29282;45.656;11.302;2022-12-18T12:00:22;99865.66;;;20.09;43.73
33163;BME280;29282;45.656;11.302;2022-12-18T12:16:37;99872.00;;;20.10;43.91
33163;BME280;29282;45.656;11.302;2022-12-18T12:19:21;99870.06;;;20.10;43.80
33163;BME280;29282;45.656;11.302;2022-12-18T12:25:33;99867.09;;;20.21;43.71
33163;BME280;29282;45.656;11.302;2022-12-18T12:30:30;99869.03;;;20.20;43.71
33163;BME280;29282;45.656;11.302;2022-12-18T12:35:44;99867.72;;;20.17;43.82
33163;BME280;29282;45.656;11.302;2022-12-18T12:38:17;99863.81;;;20.18;43.62
33163;BME280;29282;45.656;11.302;2022-12-18T12:40:52;99865.66;;;20.09;43.38
33163;BME280;29282;45.656;11.302;2022-12-18T12:43:37;99856.47;;;19.59;40.40
33163;BME280;29282;45.656;11.302;2022-12-18T12:46:07;99858.25;;;19.22;37.42
33163;BME280;29282;45.656;11.302;2022-12-18T12:51:24;99855.94;;;19.43;38.99
33163;BME280;29282;45.656;11.302;2022-12-18T12:53:52;99864.94;;;19.62;38.64
33163;BME280;29282;45.656;11.302;2022-12-18T12:56:20;99859.66;;;19.80;38.49
33163;BME280;29282;45.656;11.302;2022-12-18T13:07:26;99863.84;;;20.05;39.83
33163;BME280;29282;45.656;11.302;2022-12-18T13:10:13;99862.41;;;20.07;39.77
33163;BME280;29282;45.656;11.302;2022-12-18T13:13:04;99865.66;;;20.09;40.10
33163;BME280;29282;45.656;11.302;2022-12-18T13:18:26;99861.50;;;20.12;39.97
33163;BME280;29282;45.656;11.302;2022-12-18T13:23:27;99860.06;;;20.14;40.35
33163;BME280;29282;45.656;11.302;2022-12-18T13:36:41;99852.09;;;20.13;40.99
33163;BME280;29282;45.656;11.302;2022-12-18T13:39:25;99845.50;;;20.14;40.91
33163;BME280;29282;45.656;11.302;2022-12-18T13:44:40;99843.03;;;20.12;40.96
33163;BME280;29282;45.656;11.302;2022-12-18T13:47:33;99851.81;;;20.14;41.10
33163;BME280;29282;45.656;11.302;2022-12-18T13:50:20;99841.09;;;20.13;41.26
33163;BME280;29282;45.656;11.302;2022-12-18T13:52:51;99841.94;;;20.13;41.10
33163;BME280;29282;45.656;11.302;2022-12-18T13:55:19;99843.56;;;20.14;41.14
33163;BME280;29282;45.656;11.302;2022-12-18T13:57:46;99843.56;;;20.14;41.38
33163;BME280;29282;45.656;11.302;2022-12-18T14:02:51;99849.25;;;20.18;41.35
33163;BME280;29282;45.656;11.302;2022-12-18T14:05:28;99852.09;;;20.13;41.41
33163;BME280;29282;45.656;11.302;2022-12-18T14:08:05;99857.13;;;20.11;41.45
33163;BME280;29282;45.656;11.302;2022-12-18T14:10:32;99860.69;;;20.11;41.43
33163;BME280;29282;45.656;11.302;2022-12-18T14:13:05;99855.97;;;20.12;41.73
33163;BME280;29282;45.656;11.302;2022-12-18T14:15:39;99854.56;;;20.14;41.37
33163;BME280;29282;45.656;11.302;2022-12-18T14:18:22;99853.56;;;20.10;41.50
33163;BME280;29282;45.656;11.302;2022-12-18T14:20:51;99861.28;;;20.08;41.38
33163;BME280;29282;45.656;11.302;2022-12-18T14:23:40;99852.22;;;20.08;41.44
33163;BME280;29282;45.656;11.302;2022-12-18T14:26:28;99855.78;;;20.08;41.20
33163;BME280;29282;45.656;11.302;2022-12-18T14:28:59;99858.84;;;20.07;41.67
33163;BME280;29282;45.656;11.302;2022-12-18T14:31:30;99860.47;;;20.08;41.61
33163;BME280;29282;45.656;11.302;2022-12-18T14:33:57;99852.22;;;20.08;41.47
33163;BME280;29282;45.656;11.302;2022-12-18T14:36:26;99869.03;;;20.06;41.38
33163;BME280;29282;45.656;11.302;2022-12-18T14:38:58;99877.00;;;20.08;41.41
33163;BME280;29282;45.656;11.302;2022-12-18T14:41:25;99874.25;;;20.08;41.59
33163;BME280;29282;45.656;11.302;2022-12-18T14:43:53;99872.28;;;20.08;41.65